McCammon, ID

8:05 PM MDT on August 22, 2014 (GMT -0600)
MesoWest INKOM1 ID US UPR | Change Station
CLOSE
Current Station
Personal Weather Station
Location: Inkom, ID
Elevation: 4613 ft
Nearby Weather Stations

Elev 4613 ft 42.74 °N, 112.21 °W | Updated 1 hour ago

Mostly Cloudy
Mostly Cloudy
51.0 °F
Feels Like 51.0 °F
N
-
Wind Variable Wind from North

Today
High -- | Low -- °F
--% Chance of Precip.
Yesterday
High -- | Low -- °F
Precip. -- in
6:42 AM 8:19 PM
Waning Crescent, 6% visible
Pressure 29.96 in
Visibility 10.0 miles
Clouds Few 700 ft
Mostly Cloudy 5500 ft
Dew Point Not available.
Humidity Not available.
Rainfall -999.00 in
Snow Depth 0 in
UV 0 out of 12
Pollen 7.10 out of 12
PM2.5 Good
Flu Activity Not available.
METAR KPIH 230153Z 36016G21KT 10SM FEW007 BKN055 13/12 A3003 RMK AO2 SLP146 T01280117

More Conditions Fewer Conditions

Pressure 29.96 in
Visibility 10.0 miles
Clouds Few 700 ft
Mostly Cloudy 5500 ft
Dew Point Not available.
Humidity Not available.
Rainfall -999.00 in
Snow Depth 0 in
UV 0 out of 12
Pollen 7.10 out of 12
PM2.5 Good
Flu Activity Not available.
METAR KPIH 230153Z 36016G21KT 10SM FEW007 BKN055 13/12 A3003 RMK AO2 SLP146 T01280117

More Conditions Fewer Conditions

10-Day Weather Forecast

Almanac

Astronomy

Aug. 22, 2014 Rise Set
Actual Time 6:42 AM MDT 8:19 PM MDT
Civil Twilight 6:13 AM MDT 8:49 PM MDT
Nautical Twilight 5:36 AM MDT 9:25 PM MDT
Astronomical Twilight 4:58 AM MDT 10:03 PM MDT
Moon 4:07 AM MDT (8/22) 6:31 PM MDT (8/22)
Length of Visible Light 14h 36m
Length of Day
13h 36m
Tomorrow will be 2m 41s shorter.
Waning Crescent, 6% of the Moon is Illuminated
Today
Waning Crescent
Aug 25
New
Sep 2
First Quarter
Sep 8
Full
Sep 15
Last Quarter

Today's Extremes

State Highs State Lows

Community

WunderPhotos

Upload Photos

1,746,348 photos uploaded!

WunderBlogs® & News

Nearby

Air Quality

  Air Quality AQ Index Pollutant
Yesterday Good
PM2.5
Current Good
PM2.5

Snow Depth

Station Depth Elevation
Wildhorse Divide 0 in 6490 ft
Oxford Spring 0 in 6740 ft
Emigrant Summit 0 in 7390 ft
Sheep Mountain 0 in 6570 ft
Somsen Ranch 1 in 6800 ft

Earthquake Activity

City Distance Mag. Time & Date
No recent earthquake activity has been reported nearby.
Minimum magnitude displayed is 2.5.

Coastal Water Temperatures

Place Temperature
No Stations Reporting

Nearby Weather Stations